Landis Store, Pennsylvania
Current Conditions -  °F | °C
As of 4:54 PM on Thursday 23 Oct 2014 (Local Time) from KPTW Reporting Station
Overcast Overcast  
Wind Chill: 54°   Ceiling: 9000
Heat Index: 54°   Visibility: 10mi
Dew Point: 43°   Wind: 13mph
Humidity: 66%   Direction: 330°NNW
Pressure: 29.81"   Gusts: 26mph
Location:  40.3481°N, 75.6818°W
Report Text: KPTW 232054Z AUTO 33011G23KT 10SM FEW045 SCT060 OVC090 12/06 A2981 RMK AO2 SLP092 T01220061 55001
Loading
Personal Weather Stations






























Interactive Weather Map
Tropical Storm Tracking
New forecast layout! Learn more

10-Day Weather Forecast

Advertisements
Track Severe Weather on mobile